Time;durP1;ratioP1;P1;durP2;ratioP2;P2;SDS_P1;SDS_P2;PMS_P1;PMS_P2;Temp;Humidity;BMP_temperature;BMP_pressure;BME280_temperature;BME280_humidity;BME280_pressure;Samples;Min_cycle;Max_cycle;Signal;HPM_P1;HPM_P2
2022/12/15 00:39:13;;;;;;;29.92;19.48;;;;;;;-0.23;74.18;98790.13;1087788;54;20035;-82
2022/12/15 00:40:17;;;;;;;27.17;18.13;;;;;;;-0.22;73.84;98794.44;1088015;54;20073;-82
2022/12/15 00:41:21;;;;;;;28.83;17.92;;;;;;;-0.19;73.96;98796.00;1088314;54;20030;-82
2022/12/15 00:42:24;;;;;;;29.55;20.15;;;;;;;-0.22;73.61;98783.91;1088205;54;20078;-82
2022/12/15 00:43:29;;;;;;;28.65;20.33;;;;;;;-0.21;73.77;98782.97;1088229;54;20121;-82
2022/12/15 00:44:30;;;;;;;27.65;18.30;;;;;;;-0.20;73.85;98782.03;1088188;54;20051;-81
2022/12/15 00:46:57;;;;;;;24.55;17.17;;;;;;;-0.12;73.84;98775.38;1088114;54;20030;-81
2022/12/15 00:47:58;;;;;;;27.38;18.30;;;;;;;-0.13;73.61;98776.34;1088033;54;20599;-83
2022/12/15 00:50:50;;;;;;;25.10;16.70;;;;;;;-0.08;73.67;98782.09;1088120;54;20031;-81
2022/12/15 01:20:19;;;;;;;32.22;21.05;;;;;;;-0.67;73.72;98822.91;1088085;54;20054;-82
2022/12/15 01:21:20;;;;;;;34.60;22.77;;;;;;;-0.74;73.48;98830.34;1088103;47;20707;-81
2022/12/15 01:22:24;;;;;;;31.52;21.55;;;;;;;-0.81;73.46;98827.28;1088242;54;20026;-83
2022/12/15 01:23:32;;;;;;;31.73;21.65;;;;;;;-0.88;73.33;98835.63;1088345;54;20034;-83
2022/12/15 01:24:34;;;;;;;31.90;21.00;;;;;;;-0.87;73.44;98839.94;1088496;54;20038;-82
2022/12/15 01:25:40;;;;;;;32.20;22.00;;;;;;;-0.85;73.35;98836.28;1088368;54;20540;-82
2022/12/15 01:26:42;;;;;;;32.45;21.05;;;;;;;-0.89;73.38;98834.81;1088155;54;20691;-83
2022/12/15 01:27:46;;;;;;;29.27;20.58;;;;;;;-0.91;73.34;98839.31;1088359;54;20031;-81
2022/12/15 01:28:48;;;;;;;32.35;21.30;;;;;;;-0.91;73.60;98841.13;1088147;54;20034;-79
2022/12/15 01:29:52;;;;;;;30.73;20.20;;;;;;;-0.80;73.28;98843.84;1089265;47;20078;-81
2022/12/15 01:30:53;;;;;;;34.25;21.63;;;;;;;-0.81;73.21;98840.41;1088154;54;20034;-82
2022/12/15 01:31:58;;;;;;;28.40;19.13;;;;;;;-0.77;73.20;98843.66;1089117;47;20019;-82
2022/12/15 01:33:00;;;;;;;31.33;20.10;;;;;;;-0.70;72.87;98850.16;1088122;54;20652;-82
2022/12/15 01:34:04;;;;;;;31.63;20.13;;;;;;;-0.67;72.91;98849.97;1087984;54;20037;-82
2022/12/15 01:35:07;;;;;;;28.10;18.48;;;;;;;-0.67;72.70;98849.16;1087480;54;20030;-82
2022/12/15 01:36:13;;;;;;;30.60;20.40;;;;;;;-0.66;72.62;98853.44;1088242;54;20030;-83
2022/12/15 01:37:14;;;;;;;31.73;19.95;;;;;;;-0.66;72.82;98848.19;1088042;54;20025;-83
2022/12/15 01:38:19;;;;;;;29.05;19.73;;;;;;;-0.62;72.64;98852.28;1088220;54;20015;-82
2022/12/15 01:39:23;;;;;;;28.95;20.10;;;;;;;-0.69;72.70;98853.66;1087984;54;20061;-83
2022/12/15 01:41:44;;;;;;;30.98;20.30;;;;;;;-0.79;72.95;98856.88;1088117;54;20041;-83
2022/12/15 01:42:46;;;;;;;34.72;21.20;;;;;;;-0.82;73.15;98862.31;1090651;47;20054;-84
2022/12/15 01:43:50;;;;;;;33.85;21.05;;;;;;;-0.82;73.06;98856.25;1095570;39;20916;-85
2022/12/15 01:44:53;;;;;;;32.30;20.50;;;;;;;-0.77;73.22;98859.41;1088121;54;20062;-81
2022/12/15 01:46:02;;;;;;;28.92;19.73;;;;;;;-0.71;73.01;98852.91;1088363;46;20043;-81
2022/12/15 01:47:04;;;;;;;31.23;21.48;;;;;;;-0.70;73.05;98859.84;1088037;54;20042;-83
2022/12/15 01:48:13;;;;;;;30.15;20.63;;;;;;;-0.72;72.95;98862.56;1089090;47;20026;-82
2022/12/15 01:49:19;;;;;;;29.58;20.17;;;;;;;-0.68;72.88;98857.97;1087937;54;20046;-81
2022/12/15 01:50:22;;;;;;;28.95;20.85;;;;;;;-0.64;72.92;98854.16;1088123;54;20046;-82
2022/12/15 01:51:32;;;;;;;35.78;22.60;;;;;;;-0.70;72.97;98862.47;1087960;54;20073;-84
2022/12/15 01:52:34;;;;;;;28.60;18.80;;;;;;;-0.65;72.71;98857.72;1088062;54;20018;-82
2022/12/15 01:53:44;;;;;;;27.45;19.60;;;;;;;-0.64;72.77;98851.53;1088143;54;20034;-82
2022/12/15 01:54:52;;;;;;;29.83;21.27;;;;;;;-0.72;72.97;98856.47;1087971;54;20038;-83
2022/12/15 01:55:56;;;;;;;29.30;19.92;;;;;;;-0.67;73.15;98854.41;1088021;54;20090;-83
2022/12/15 01:57:02;;;;;;;31.75;21.08;;;;;;;-0.70;73.10;98859.84;1088148;54;20041;-83
2022/12/15 01:58:10;;;;;;;31.02;19.85;;;;;;;-0.71;72.95;98858.97;1088027;54;20106;-81
2022/12/15 01:59:18;;;;;;;30.80;20.88;;;;;;;-0.72;73.33;98861.72;1088026;54;20019;-82
2022/12/15 02:00:19;;;;;;;30.02;20.30;;;;;;;-0.68;73.01;98855.34;1088186;54;20030;-81
2022/12/15 02:01:25;;;;;;;32.97;22.27;;;;;;;-0.73;73.15;98850.41;1088159;54;20045;-81
2022/12/15 02:02:29;;;;;;;30.05;20.42;;;;;;;-0.75;73.23;98846.16;1087964;54;20030;-82
2022/12/15 02:03:34;;;;;;;37.75;24.00;;;;;;;-0.81;73.22;98861.38;1088339;39;20405;-81
2022/12/15 02:04:36;;;;;;;33.25;22.38;;;;;;;-0.83;73.36;98849.31;1088128;54;20038;-83
2022/12/15 02:05:42;;;;;;;37.90;23.88;;;;;;;-0.92;73.53;98850.75;1088066;54;20019;-82
2022/12/15 02:06:44;;;;;;;35.20;22.92;;;;;;;-0.95;73.74;98856.22;1088192;54;20058;-84
2022/12/15 02:07:48;;;;;;;32.47;21.63;;;;;;;-0.90;73.88;98855.91;1088044;54;20039;-83
2022/12/15 02:08:52;;;;;;;35.03;22.65;;;;;;;-0.90;73.79;98848.06;1088073;54;20034;-83
2022/12/15 02:10:04;;;;;;;31.08;21.50;;;;;;;-0.92;73.99;98850.75;1088021;54;20022;-82
2022/12/15 02:11:22;;;;;;;32.83;21.70;;;;;;;-0.97;74.10;98848.44;1088015;54;20042;-82
2022/12/15 02:12:36;;;;;;;30.23;20.98;;;;;;;-0.98;74.29;98846.75;1088099;54;20031;-84
2022/12/15 02:13:47;;;;;;;33.67;22.98;;;;;;;-1.00;74.08;98847.78;1087906;54;20030;-81
2022/12/15 02:14:59;;;;;;;;;;;;;;;-1.08;74.61;98855.34;1088152;54;20053;-82
2022/12/15 02:16:08;;;;;;;30.05;20.77;;;;;;;-1.06;74.48;98850.84;1088058;54;19935;-84
2022/12/15 02:17:23;;;;;;;32.35;21.27;;;;;;;-0.99;74.28;98846.84;1088026;54;20042;-83
2022/12/15 02:18:31;;;;;;;28.73;19.65;;;;;;;-0.90;74.05;98854.13;1088006;54;20216;-83
2022/12/15 02:20:14;;;;;;;33.75;21.15;;;;;;;-0.90;74.04;98845.44;1087924;54;20114;-80
2022/12/15 02:21:21;;;;;;;31.38;20.70;;;;;;;-0.87;74.04;98842.56;1088168;47;20033;-82
2022/12/15 02:22:33;;;;;;;34.00;22.88;;;;;;;-0.95;73.86;98845.72;1087994;54;20042;-82
2022/12/15 02:24:10;;;;;;;32.85;21.83;;;;;;;-1.05;74.15;98845.47;1088764;47;20018;-81
2022/12/15 02:25:31;;;;;;;33.67;22.48;;;;;;;-1.05;74.54;98849.91;1088039;54;20038;-80
2022/12/15 02:27:14;;;;;;;33.22;21.83;;;;;;;-1.10;74.30;98847.56;1088127;54;20035;-82
2022/12/15 02:28:34;;;;;;;37.88;22.80;;;;;;;-1.14;74.68;98853.94;1094041;31;20522;-84
2022/12/15 02:30:14;;;;;;;33.20;21.70;;;;;;;-1.14;74.60;98854.81;1089820;39;20456;-82
2022/12/15 02:32:44;;;;;;;31.58;21.58;;;;;;;-1.08;74.54;98855.34;1087633;54;20030;-83
2022/12/15 02:33:51;;;;;;;34.13;22.10;;;;;;;-1.13;74.42;98848.59;1094678;31;20703;-81
2022/12/15 02:35:01;;;;;;;36.33;22.90;;;;;;;-1.10;74.03;98852.81;1087703;54;20030;-83
2022/12/15 02:36:12;;;;;;;35.28;22.27;;;;;;;-1.06;74.36;98845.59;1090958;31;20882;-82
2022/12/15 02:37:21;;;;;;;32.33;19.80;;;;;;;-0.95;73.98;98849.19;1091014;31;20716;-83
2022/12/15 02:38:31;;;;;;;28.98;18.92;;;;;;;-0.84;73.66;98843.22;1087629;54;20051;-82
2022/12/15 02:39:41;;;;;;;31.75;19.83;;;;;;;-0.91;73.46;98846.38;1088015;54;20042;-83
2022/12/15 02:40:42;;;;;;;33.10;21.30;;;;;;;-0.96;73.63;98846.66;1088111;54;20031;-85
2022/12/15 02:41:50;;;;;;;31.10;20.85;;;;;;;-0.97;73.43;98852.84;1088058;54;20154;-84
2022/12/15 02:42:55;;;;;;;29.27;20.17;;;;;;;-1.02;72.95;98853.16;1087915;54;20022;-83
2022/12/15 02:44:00;;;;;;;33.35;21.05;;;;;;;-1.10;73.02;98858.06;1087930;54;20056;-83
2022/12/15 02:45:15;;;;;;;34.28;21.83;;;;;;;-1.24;73.40;98845.00;1087988;54;20039;-82
2022/12/15 02:46:30;;;;;;;31.83;20.92;;;;;;;-1.22;73.62;98857.06;1087922;54;20038;-84
2022/12/15 02:47:36;;;;;;;32.20;20.45;;;;;;;-1.22;73.76;98849.19;1087913;54;20021;-81
2022/12/15 02:48:55;;;;;;;33.72;22.08;;;;;;;-1.16;73.55;98847.94;1088097;54;20026;-81
2022/12/15 02:50:17;;;;;;;28.50;19.40;;;;;;;-1.13;73.54;98858.25;1088177;54;20038;-83
2022/12/15 02:51:34;;;;;;;32.03;20.95;;;;;;;-1.15;73.22;98860.13;1088860;39;20359;-83
2022/12/15 02:52:52;;;;;;;34.00;21.58;;;;;;;-1.13;73.30;98866.94;1088066;54;20035;-82
2022/12/15 02:54:19;;;;;;;32.92;21.13;;;;;;;-1.10;73.42;98863.31;1088081;54;20031;-83
2022/12/15 02:55:36;;;;;;;35.78;22.58;;;;;;;-1.13;73.53;98866.94;1087903;54;20051;-83
2022/12/15 02:56:45;;;;;;;30.65;21.02;;;;;;;-1.14;73.45;98857.44;1087962;54;20019;-84
2022/12/15 02:57:57;;;;;;;33.28;21.05;;;;;;;-1.16;73.38;98856.69;1087519;54;20038;-81
2022/12/15 02:59:06;;;;;;;32.03;21.58;;;;;;;-1.19;73.44;98851.63;1087846;39;20296;-82
2022/12/15 03:00:12;;;;;;;33.58;22.35;;;;;;;-1.07;73.56;98860.47;1086608;46;20095;-81
2022/12/15 03:01:22;;;;;;;28.45;19.88;;;;;;;-1.01;73.33;98862.72;1086612;54;20042;-81
2022/12/15 03:02:30;;;;;;;32.22;21.13;;;;;;;-1.03;73.53;98867.22;1087304;39;20571;-80
2022/12/15 03:03:34;;;;;;;29.90;20.05;;;;;;;-1.02;73.25;98868.91;1086930;54;20062;-81
2022/12/15 03:04:38;;;;;;;29.85;20.02;;;;;;;-0.96;73.22;98865.88;1086993;54;20034;-81
2022/12/15 03:05:40;;;;;;;31.23;21.65;;;;;;;-0.99;73.39;98870.47;1086683;54;20058;-82
2022/12/15 03:06:44;;;;;;;31.02;21.30;;;;;;;-1.00;73.33;98880.13;1086806;54;20030;-81
2022/12/15 03:07:49;;;;;;;31.83;20.45;;;;;;;-0.96;73.08;98881.59;1087725;46;20051;-81
2022/12/15 03:08:53;;;;;;;33.42;21.98;;;;;;;-0.94;73.25;98884.13;1088130;39;20598;-81
2022/12/15 03:09:55;;;;;;;31.25;21.77;;;;;;;-0.92;73.23;98882.25;1086706;54;20042;-82
2022/12/15 03:11:00;;;;;;;29.83;20.55;;;;;;;-0.95;73.29;98877.22;1086967;54;20038;-81
2022/12/15 03:12:01;;;;;;;33.85;22.13;;;;;;;-0.99;73.26;98894.91;1086697;54;20039;-80
2022/12/15 03:13:05;;;;;;;31.85;21.70;;;;;;;-0.97;73.22;98895.66;1086680;54;20038;-81
2022/12/15 03:14:07;;;;;;;34.20;20.73;;;;;;;-0.96;73.40;98899.16;1086805;54;20038;-81
2022/12/15 03:15:12;;;;;;;30.10;20.75;;;;;;;-0.94;73.07;98899.84;1086960;54;20046;-82
2022/12/15 03:16:16;;;;;;;29.02;20.33;;;;;;;-0.95;72.87;98898.22;1086992;54;20034;-81
2022/12/15 03:17:20;;;;;;;32.72;21.55;;;;;;;-0.98;73.24;98899.22;1087870;39;20622;-81
2022/12/15 03:18:22;;;;;;;31.55;21.27;;;;;;;-1.02;73.32;98891.66;1086831;54;20038;-81
2022/12/15 03:19:27;;;;;;;30.55;20.90;;;;;;;-1.06;73.12;98887.56;1086758;54;20042;-81
2022/12/15 03:20:28;;;;;;;31.80;22.02;;;;;;;-1.06;73.08;98895.44;1086886;54;20066;-81
2022/12/15 03:21:32;;;;;;;38.40;24.92;;;;;;;-1.00;73.15;98903.75;1086988;54;20046;-81
2022/12/15 03:22:34;;;;;;;33.45;22.98;;;;;;;-1.03;73.04;98903.09;1086697;54;20671;-82
2022/12/15 03:23:38;;;;;;;33.47;22.42;;;;;;;-0.99;72.90;98899.34;1086908;54;20027;-81
2022/12/15 03:24:39;;;;;;;30.95;22.30;;;;;;;-1.08;73.29;98899.94;1086885;54;20042;-81
2022/12/15 03:25:46;;;;;;;35.55;21.65;;;;;;;-1.10;73.34;98893.00;1087086;54;20049;-84
2022/12/15 03:26:48;;;;;;;31.17;21.90;;;;;;;-1.03;73.35;98895.22;1088311;54;20057;-85
2022/12/15 03:27:53;;;;;;;30.45;20.33;;;;;;;-0.94;73.27;98899.84;1088273;54;20041;-83
2022/12/15 03:28:54;;;;;;;34.78;21.75;;;;;;;-0.94;72.95;98899.84;1088220;54;20044;-82
2022/12/15 03:29:59;;;;;;;29.02;20.00;;;;;;;-0.90;72.93;98898.72;1088320;54;20030;-82
2022/12/15 03:31:00;;;;;;;30.15;20.48;;;;;;;-0.85;72.97;98901.88;1087820;54;20600;-81
2022/12/15 03:32:07;;;;;;;27.30;18.73;;;;;;;-0.82;72.52;98904.31;1088058;54;20069;-82
2022/12/15 03:33:09;;;;;;;31.08;21.05;;;;;;;-0.83;72.83;98907.06;1087847;54;20026;-84
2022/12/15 03:34:20;;;;;;;31.25;20.88;;;;;;;-0.92;72.67;98890.13;1088033;54;20031;-83
2022/12/15 03:35:22;;;;;;;34.22;23.33;;;;;;;-0.95;73.06;98898.22;1088049;54;20035;-83
2022/12/15 03:36:26;;;;;;;29.95;20.73;;;;;;;-0.94;73.20;98897.22;1087637;54;20114;-84
2022/12/15 03:37:27;;;;;;;31.60;20.90;;;;;;;-0.95;72.90;98895.59;1087981;54;20636;-81
2022/12/15 03:38:32;;;;;;;30.42;21.05;;;;;;;-0.96;73.20;98891.28;1088106;54;20095;-83
2022/12/15 03:39:33;;;;;;;31.20;22.48;;;;;;;-0.97;73.19;98906.16;1087866;54;20042;-83
2022/12/15 03:40:37;;;;;;;31.90;21.75;;;;;;;-1.05;73.05;98910.22;1087995;54;20030;-80
2022/12/15 03:41:40;;;;;;;33.20;22.42;;;;;;;-1.00;73.31;98911.63;1088237;54;20046;-82
2022/12/15 03:42:52;;;;;;;33.28;21.88;;;;;;;-1.03;73.53;98916.19;1087172;54;20041;-80
2022/12/15 03:43:53;;;;;;;32.75;21.75;;;;;;;-1.04;73.49;98914.53;1086955;31;20607;-81
2022/12/15 03:44:57;;;;;;;31.33;21.35;;;;;;;-1.06;73.38;98914.63;1086392;54;20030;-81
2022/12/15 03:45:59;;;;;;;33.15;21.13;;;;;;;-1.08;73.38;98907.78;1086296;54;20069;-81
2022/12/15 03:47:03;;;;;;;32.20;21.95;;;;;;;-1.10;73.23;98911.34;1086705;54;20466;-82
2022/12/15 03:48:07;;;;;;;34.25;22.80;;;;;;;-1.14;73.59;98906.41;1086837;54;20038;-80
2022/12/15 03:49:11;;;;;;;30.35;21.05;;;;;;;-1.12;73.69;98904.53;1087272;54;20153;-80
2022/12/15 03:50:16;;;;;;;34.33;23.02;;;;;;;-1.14;73.66;98904.63;1087263;54;20042;-80
2022/12/15 03:51:20;;;;;;;33.55;22.63;;;;;;;-1.15;73.96;98902.09;1088345;46;20122;-80
2022/12/15 03:52:22;;;;;;;32.47;22.75;;;;;;;-1.19;74.05;98905.88;1087035;54;20030;-80
2022/12/15 03:53:33;;;;;;;30.23;21.83;;;;;;;-1.10;73.74;98908.72;1087156;54;20134;-80
2022/12/15 03:54:34;;;;;;;32.72;21.67;;;;;;;-1.10;73.62;98905.28;1087945;39;20233;-80
2022/12/15 03:55:38;;;;;;;30.42;21.80;;;;;;;-1.11;74.00;98907.03;1087429;54;20026;-81
2022/12/15 03:56:40;;;;;;;30.10;21.58;;;;;;;-1.09;73.83;98912.22;1089015;46;20035;-80
2022/12/15 03:57:45;;;;;;;33.28;21.95;;;;;;;-1.05;73.63;98915.47;1087353;54;20038;-81
2022/12/15 03:58:46;;;;;;;29.15;20.25;;;;;;;-0.96;73.57;98907.00;1087552;46;20074;-80
2022/12/15 03:59:50;;;;;;;33.20;21.73;;;;;;;-1.02;73.25;98917.88;1087544;54;20109;-81
2022/12/15 04:00:54;;;;;;;30.77;22.23;;;;;;;-1.03;73.78;98917.06;1088386;46;20093;-81
2022/12/15 04:01:57;;;;;;;36.20;22.98;;;;;;;-1.06;73.44;98913.78;1088174;46;20023;-80
2022/12/15 04:03:01;;;;;;;32.53;22.25;;;;;;;-1.10;73.61;98910.53;1087643;46;20081;-80
2022/12/15 04:04:05;;;;;;;32.53;22.90;;;;;;;-1.10;73.76;98921.84;1087467;54;20050;-81
2022/12/15 04:05:11;;;;;;;33.03;22.63;;;;;;;-1.09;73.89;98912.22;1089293;39;20254;-81
2022/12/15 04:06:15;;;;;;;32.63;21.42;;;;;;;-1.04;73.58;98917.16;1087677;54;20043;-81
2022/12/15 04:07:16;;;;;;;35.28;24.08;;;;;;;-1.05;73.64;98929.44;1087686;54;20039;-81
2022/12/15 04:08:25;;;;;;;28.92;21.08;;;;;;;-1.03;73.72;98932.78;1087980;46;20115;-80
2022/12/15 04:09:27;;;;;;;30.63;21.13;;;;;;;-1.02;73.61;98929.25;1087352;54;20061;-80
2022/12/15 04:10:42;;;;;;;35.35;22.83;;;;;;;-1.08;73.47;98929.59;1086909;54;20035;-80
2022/12/15 04:11:43;;;;;;;32.28;21.25;;;;;;;-1.08;73.53;98929.59;1086837;46;20064;-80
2022/12/15 04:12:48;;;;;;;32.60;22.45;;;;;;;-1.13;73.56;98929.91;1086697;54;20049;-79
2022/12/15 04:13:49;;;;;;;33.20;22.70;;;;;;;-1.14;73.76;98936.13;1086794;54;20042;-80
2022/12/15 04:14:53;;;;;;;32.28;22.52;;;;;;;-1.10;73.83;98936.75;1087115;47;20082;-80
2022/12/15 04:15:55;;;;;;;30.30;20.85;;;;;;;-1.03;73.59;98926.69;1086577;54;20033;-80
2022/12/15 04:16:59;;;;;;;32.90;20.88;;;;;;;-0.99;73.65;98938.69;1086387;54;20604;-80
2022/12/15 04:18:01;;;;;;;27.75;18.95;;;;;;;-0.95;73.28;98927.06;1086359;54;20611;-80
2022/12/15 04:20:25;;;;;;;32.67;21.67;;;;;;;-1.02;73.61;98924.00;1086455;54;20042;-81
2022/12/15 04:21:26;;;;;;;30.60;21.42;;;;;;;-1.02;73.29;98925.75;1086520;54;20065;-81
2022/12/15 04:22:30;;;;;;;32.60;22.92;;;;;;;-1.04;73.53;98927.66;1086524;54;20038;-80
2022/12/15 04:23:34;;;;;;;31.67;22.75;;;;;;;-0.98;73.53;98928.09;1086189;54;20031;-80
2022/12/15 05:33:01;;;;;;;33.13;20.30;;;;;;;-0.73;71.79;98960.63;1087970;54;20037;-82
2022/12/15 05:34:12;;;;;;;32.63;21.80;;;;;;;-0.72;72.00;98961.47;1088050;54;20015;-83
2022/12/15 05:35:28;;;;;;;29.70;20.27;;;;;;;-0.76;72.03;98960.00;1091684;39;20624;-84
2022/12/15 05:36:42;;;;;;;32.42;21.73;;;;;;;-0.80;72.33;98968.06;1087941;54;20026;-82
2022/12/15 05:37:55;;;;;;;37.63;23.88;;;;;;;-0.81;72.18;98963.75;1088862;39;20489;-82
2022/12/15 05:39:05;;;;;;;33.35;23.25;;;;;;;-0.88;72.67;98957.22;1087671;54;20042;-81
2022/12/15 05:40:19;;;;;;;33.80;22.90;;;;;;;-0.90;72.45;98958.25;1087944;54;20031;-84
2022/12/15 05:41:27;;;;;;;36.53;23.52;;;;;;;-0.92;72.46;98960.97;1087892;39;20559;-79
2022/12/15 05:42:32;;;;;;;32.60;22.25;;;;;;;-0.90;72.59;98956.47;1087598;54;20025;-81
2022/12/15 05:43:33;;;;;;;35.35;23.65;;;;;;;-0.87;72.83;98964.16;1086100;54;20156;-81
2022/12/15 05:44:38;;;;;;;35.65;22.20;;;;;;;-0.90;72.50;98969.59;1086453;54;20030;-81
2022/12/15 05:45:39;;;;;;;34.47;23.08;;;;;;;-0.87;72.63;98974.66;1086090;54;20042;-80
2022/12/15 05:46:43;;;;;;;31.25;21.23;;;;;;;-0.81;72.56;98968.16;1086468;47;20074;-81
2022/12/15 05:47:50;;;;;;;30.05;20.55;;;;;;;-0.72;72.35;98969.34;1086259;47;20616;-81
2022/12/15 05:48:54;;;;;;;31.15;21.67;;;;;;;-0.80;72.51;98962.81;1086188;54;20684;-80
2022/12/15 05:49:58;;;;;;;32.55;22.45;;;;;;;-0.85;72.28;98959.63;1086286;54;20066;-81
2022/12/15 05:51:02;;;;;;;33.70;22.80;;;;;;;-0.88;72.35;98954.59;1086341;54;20046;-81
2022/12/15 05:52:09;;;;;;;32.90;22.73;;;;;;;-0.98;72.41;98956.94;1087849;39;20872;-81
2022/12/15 05:53:11;;;;;;;37.22;23.70;;;;;;;-0.93;72.79;98958.44;1086251;54;20053;-80
2022/12/15 05:54:18;;;;;;;34.20;22.35;;;;;;;-0.93;72.75;98954.03;1088066;39;20179;-80
2022/12/15 05:55:20;;;;;;;34.28;22.85;;;;;;;-0.90;72.95;98959.09;1086237;54;20077;-81
2022/12/15 05:56:24;;;;;;;32.53;22.85;;;;;;;-0.89;72.68;98960.78;1086352;54;20662;-82
2022/12/15 05:57:25;;;;;;;33.15;21.75;;;;;;;-0.89;72.67;98960.78;1086422;54;20058;-81
2022/12/15 05:58:30;;;;;;;35.22;21.92;;;;;;;-0.88;72.66;98959.84;1086257;47;20034;-81
2022/12/15 05:59:34;;;;;;;34.33;23.70;;;;;;;-0.98;72.35;98961.38;1086280;54;20044;-81
2022/12/15 06:00:36;;;;;;;33.97;23.40;;;;;;;-1.01;72.56;98957.16;1086472;47;20603;-81
2022/12/15 06:01:40;;;;;;;32.72;22.83;;;;;;;-1.01;72.66;98951.06;1089490;39;20543;-80
2022/12/15 06:02:41;;;;;;;33.08;23.70;;;;;;;-1.03;72.93;98953.78;1086119;54;20038;-81
2022/12/15 06:03:46;;;;;;;34.10;21.95;;;;;;;-0.96;72.94;98959.50;1085942;54;20038;-81
2022/12/15 06:04:47;;;;;;;31.10;21.80;;;;;;;-0.88;72.88;98964.22;1086272;54;20089;-81
2022/12/15 06:05:51;;;;;;;30.02;21.08;;;;;;;-0.82;72.56;98964.69;1086119;54;20042;-81
2022/12/15 06:06:56;;;;;;;33.50;22.25;;;;;;;-0.87;72.59;98964.16;1086334;54;20050;-80
2022/12/15 06:08:00;;;;;;;31.10;21.25;;;;;;;-0.85;72.50;98964.03;1086032;54;20118;-80
2022/12/15 06:09:05;;;;;;;31.30;21.05;;;;;;;-0.82;72.61;98962.06;1087400;47;20040;-83
2022/12/15 06:10:07;;;;;;;29.75;20.17;;;;;;;-0.75;72.21;98951.16;1087300;54;20065;-81
2022/12/15 06:11:13;;;;;;;28.35;19.48;;;;;;;-0.72;72.41;98962.31;1087666;47;20033;-81
2022/12/15 06:12:15;;;;;;;29.67;20.30;;;;;;;-0.73;72.11;98971.13;1087601;54;20034;-81
2022/12/15 06:13:19;;;;;;;33.35;21.08;;;;;;;-0.74;72.10;98964.19;1087933;47;20037;-80
2022/12/15 06:14:23;;;;;;;32.63;22.00;;;;;;;-0.83;72.37;98965.63;1087737;54;20042;-80
2022/12/15 06:15:25;;;;;;;34.50;22.65;;;;;;;-0.88;72.63;98964.22;1087381;54;20062;-81
2022/12/15 06:16:29;;;;;;;31.80;21.50;;;;;;;-0.87;72.72;98964.16;1087409;54;20065;-81
2022/12/15 06:17:31;;;;;;;29.95;20.60;;;;;;;-0.81;72.59;98974.25;1088276;46;20090;-81
2022/12/15 06:18:37;;;;;;;32.28;21.17;;;;;;;-0.74;72.54;98973.84;1087242;54;20094;-82
2022/12/15 06:19:42;;;;;;;29.20;20.15;;;;;;;-0.72;72.28;98985.09;1086816;54;20067;-80
2022/12/15 06:20:43;;;;;;;29.52;20.65;;;;;;;-0.67;72.09;98985.66;1086640;54;20074;-79
2022/12/15 06:21:47;;;;;;;31.33;20.17;;;;;;;-0.63;72.09;98984.50;1086782;54;20047;-80
2022/12/15 06:22:49;;;;;;;30.05;20.73;;;;;;;-0.59;72.20;98986.00;1086070;54;20069;-80
2022/12/15 06:23:57;;;;;;;31.23;21.55;;;;;;;-0.63;72.05;98976.63;1086059;54;20065;-81
2022/12/15 06:25:01;;;;;;;30.08;20.95;;;;;;;-0.64;72.25;98977.56;1086076;54;20034;-80
2022/12/15 06:26:08;;;;;;;35.38;23.13;;;;;;;-0.67;72.24;98981.22;1086055;54;20658;-79
2022/12/15 06:27:12;;;;;;;35.90;23.45;;;;;;;-0.72;72.50;98987.72;1086092;54;20039;-80
2022/12/15 06:28:13;;;;;;;34.17;22.55;;;;;;;-0.83;72.64;98980.53;1085981;54;20677;-80
2022/12/15 06:29:18;;;;;;;36.08;24.48;;;;;;;-0.88;72.57;98969.47;1085662;54;20027;-80
2022/12/15 06:30:19;;;;;;;39.28;25.10;;;;;;;-0.92;72.83;98981.13;1086531;31;20634;-80
2022/12/15 06:31:24;;;;;;;36.53;23.35;;;;;;;-0.88;72.92;98980.84;1085987;54;20050;-79
2022/12/15 06:32:28;;;;;;;36.60;25.05;;;;;;;-0.92;72.85;98981.13;1086354;39;20731;-80
2022/12/15 06:33:30;;;;;;;32.60;22.33;;;;;;;-0.90;72.99;98995.81;1085986;54;20061;-80
2022/12/15 06:34:34;;;;;;;31.73;22.25;;;;;;;-0.89;72.95;98997.50;1085819;54;20042;-80
2022/12/15 06:35:36;;;;;;;33.42;22.13;;;;;;;-0.87;72.77;99000.03;1086106;54;20599;-80
2022/12/15 06:36:40;;;;;;;37.25;23.88;;;;;;;-0.92;73.08;99005.56;1086189;54;20098;-80
2022/12/15 06:37:42;;;;;;;36.28;24.75;;;;;;;-0.91;73.10;98993.31;1086376;54;20054;-80
2022/12/15 06:38:46;;;;;;;34.65;22.98;;;;;;;-0.93;73.11;99001.25;1086413;54;20042;-80
2022/12/15 06:39:53;;;;;;;33.92;22.42;;;;;;;-0.97;72.85;99003.25;1086566;54;20053;-81
2022/12/15 06:40:54;;;;;;;34.63;23.48;;;;;;;-0.97;73.18;99008.50;1086308;54;20030;-81
2022/12/15 06:42:08;;;;;;;34.50;24.23;;;;;;;-0.98;73.31;99003.34;1086896;54;20031;-82
2022/12/15 06:43:09;;;;;;;33.25;22.23;;;;;;;-0.96;73.51;99002.31;1087885;54;20058;-81
2022/12/15 06:44:19;;;;;;;33.00;22.85;;;;;;;-0.95;73.34;99001.38;1087865;54;20071;-79
2022/12/15 06:45:21;;;;;;;34.30;22.63;;;;;;;-0.99;73.41;99006.91;1087861;54;20041;-80
2022/12/15 06:46:33;;;;;;;35.20;23.40;;;;;;;-1.04;73.36;98998.50;1087884;54;20045;-81
2022/12/15 06:47:35;;;;;;;34.28;23.58;;;;;;;-1.12;73.59;98999.78;1087852;54;20026;-80
2022/12/15 06:48:41;;;;;;;35.55;24.20;;;;;;;-1.02;73.29;99000.06;1087838;54;20030;-82
2022/12/15 06:49:42;;;;;;;35.97;24.55;;;;;;;-1.06;73.66;98997.75;1087717;54;20046;-80
2022/12/15 06:50:48;;;;;;;36.40;24.67;;;;;;;-1.05;73.44;98991.56;1087603;54;20034;-80
2022/12/15 06:51:52;;;;;;;32.90;23.08;;;;;;;-1.02;73.71;99002.69;1087421;54;20365;-81
2022/12/15 06:52:53;;;;;;;32.15;22.48;;;;;;;-0.91;73.41;99001.19;1086814;54;20674;-79
2022/12/15 06:53:57;;;;;;;34.25;23.38;;;;;;;-0.93;73.33;99000.44;1086491;54;20122;-80
2022/12/15 06:55:01;;;;;;;32.15;22.60;;;;;;;-0.95;73.13;98998.75;1086535;54;20034;-80
2022/12/15 06:56:09;;;;;;;32.42;22.42;;;;;;;-0.89;73.26;98996.66;1087172;31;20514;-81
2022/12/15 06:57:13;;;;;;;35.75;23.92;;;;;;;-0.99;73.21;99001.66;1086526;46;20026;-80
2022/12/15 06:58:15;;;;;;;36.70;25.20;;;;;;;-0.97;73.20;99003.25;1086395;54;20042;-80
2022/12/15 06:59:19;;;;;;;32.78;22.27;;;;;;;-0.90;73.38;99011.56;1086513;54;20691;-80
2022/12/15 07:00:21;;;;;;;31.58;21.42;;;;;;;-0.81;73.07;99020.66;1086908;54;20045;-80
2022/12/15 07:01:26;;;;;;;31.77;21.85;;;;;;;-0.79;73.02;99019.59;1086883;54;20034;-79
2022/12/15 07:02:28;;;;;;;35.97;22.88;;;;;;;-0.77;72.95;99010.81;1087346;54;20030;-80
2022/12/15 07:03:33;;;;;;;36.28;22.27;;;;;;;-0.80;72.96;99012.66;1087164;54;20061;-80
2022/12/15 07:04:37;;;;;;;33.15;22.17;;;;;;;-0.72;72.68;99013.97;1087104;54;20045;-80
2022/12/15 07:05:40;;;;;;;29.13;19.67;;;;;;;-0.70;72.76;99007.66;1086987;54;20034;-79
2022/12/15 07:06:44;;;;;;;29.02;20.48;;;;;;;-0.69;72.68;99011.97;1086959;54;20150;-80
2022/12/15 07:07:45;;;;;;;35.67;22.13;;;;;;;-0.77;72.29;99010.81;1086876;54;20035;-79
2022/12/15 07:08:53;;;;;;;35.40;22.17;;;;;;;-0.74;72.66;99015.84;1086611;54;20035;-81
2022/12/15 07:09:54;;;;;;;32.38;21.75;;;;;;;-0.77;72.85;99016.06;1086392;54;20065;-80
2022/12/15 07:11:01;;;;;;;34.25;22.27;;;;;;;-0.76;72.66;99015.13;1086334;54;20065;-80
2022/12/15 07:12:06;;;;;;;35.92;24.30;;;;;;;-0.90;72.78;99006.31;1086490;46;20047;-80
2022/12/15 07:13:09;;;;;;;34.95;23.52;;;;;;;-0.97;73.09;99007.66;1086166;54;20046;-80
2022/12/15 07:14:13;;;;;;;32.10;21.98;;;;;;;-0.95;73.30;99009.25;1086334;54;20042;-80
2022/12/15 07:15:15;;;;;;;38.03;24.70;;;;;;;-0.97;73.10;99005.03;1086237;54;20666;-80
2022/12/15 07:16:19;;;;;;;36.50;24.05;;;;;;;-1.01;73.42;98996.53;1088827;31;20493;-80
2022/12/15 07:17:23;;;;;;;32.30;21.88;;;;;;;-0.90;73.19;98995.81;1086456;54;20035;-80
2022/12/15 07:18:25;;;;;;;37.05;24.02;;;;;;;-0.95;73.29;98996.13;1086085;54;20098;-79
2022/12/15 07:19:29;;;;;;;40.47;25.50;;;;;;;-1.02;73.46;98992.19;1086364;54;20042;-79
2022/12/15 07:20:30;;;;;;;36.33;24.63;;;;;;;-1.10;73.96;98994.47;1086192;54;20611;-79
2022/12/15 07:21:34;;;;;;;39.50;26.25;;;;;;;-1.19;73.98;98990.63;1086820;46;20611;-81
2022/12/15 07:22:36;;;;;;;38.33;25.13;;;;;;;-1.19;74.23;98998.50;1086236;54;20038;-80
2022/12/15 07:23:40;;;;;;;40.65;25.88;;;;;;;-1.21;74.18;99002.16;1086123;54;20041;-80
2022/12/15 07:24:42;;;;;;;39.85;25.85;;;;;;;-1.23;74.59;99010.13;1087183;39;20477;-80